createdAt,value
2022-08-29T00:00:02.248Z,19.58
2022-08-29T00:03:08.948Z,19.58
2022-08-29T00:06:11.386Z,19.48
2022-08-29T00:09:13.683Z,19.39
2022-08-29T00:12:16.072Z,19.37
2022-08-29T00:15:19.751Z,19.38
2022-08-29T00:18:21.974Z,19.32
2022-08-29T00:21:24.488Z,19.26
2022-08-29T00:24:27.476Z,19.21
2022-08-29T00:27:29.775Z,19.13
2022-08-29T00:30:32.628Z,19.04
2022-08-29T00:33:34.827Z,19.13
2022-08-29T00:36:40.526Z,19.18
2022-08-29T00:39:51.117Z,19.27
2022-08-29T00:42:53.661Z,19.29
2022-08-29T00:45:55.871Z,19.19
2022-08-29T00:49:03.090Z,19.09
2022-08-29T00:52:12.204Z,18.97
2022-08-29T00:55:23.212Z,18.98
2022-08-29T00:58:32.580Z,18.97
2022-08-29T01:01:35.225Z,18.93
2022-08-29T01:04:39.409Z,18.90
2022-08-29T01:07:42.766Z,18.84
2022-08-29T01:11:04.184Z,18.79
2022-08-29T01:14:06.607Z,18.88
2022-08-29T01:17:09.607Z,18.90
2022-08-29T01:20:20.931Z,18.89
2022-08-29T01:23:40.529Z,18.90
2022-08-29T01:26:45.015Z,18.92
2022-08-29T01:29:47.609Z,18.91
2022-08-29T01:32:49.808Z,18.87
2022-08-29T01:35:52.513Z,18.98
2022-08-29T01:38:54.735Z,18.87
2022-08-29T01:41:58.103Z,18.89
2022-08-29T01:45:00.884Z,18.99
2022-08-29T01:48:05.268Z,19.05
2022-08-29T01:51:11.178Z,18.96
2022-08-29T01:54:14.438Z,18.92
2022-08-29T01:57:17.370Z,18.86
2022-08-29T02:00:19.702Z,18.78
2022-08-29T02:03:22.296Z,18.73
2022-08-29T02:06:25.572Z,18.76
2022-08-29T02:09:28.605Z,18.75
2022-08-29T02:12:31.641Z,18.81
2022-08-29T02:15:34.022Z,18.77
2022-08-29T02:18:36.354Z,18.72
2022-08-29T02:21:38.613Z,18.83
2022-08-29T02:24:42.143Z,18.79
2022-08-29T02:27:45.254Z,18.82
2022-08-29T02:30:52.159Z,18.87
2022-08-29T02:33:59.106Z,18.83
2022-08-29T02:37:02.357Z,18.71
2022-08-29T02:40:05.291Z,18.47
2022-08-29T02:43:08.165Z,18.38
2022-08-29T02:46:15.234Z,18.38
2022-08-29T02:49:17.618Z,18.35
2022-08-29T02:52:20.632Z,18.41
2022-08-29T02:55:24.134Z,18.43
2022-08-29T02:58:26.814Z,18.49
2022-08-29T03:01:31.273Z,18.59
2022-08-29T03:04:34.470Z,18.56
2022-08-29T03:07:36.837Z,18.62
2022-08-29T03:10:39.170Z,18.70
2022-08-29T03:13:41.743Z,18.72
2022-08-29T03:16:43.971Z,18.65
2022-08-29T03:19:46.195Z,18.53
2022-08-29T03:22:49.228Z,18.48
2022-08-29T03:25:51.547Z,18.53
2022-08-29T03:28:54.241Z,18.51
2022-08-29T03:31:59.808Z,18.47
2022-08-29T03:35:02.085Z,18.52
2022-08-29T03:38:04.358Z,18.50
2022-08-29T03:41:07.443Z,18.45
2022-08-29T03:44:09.931Z,18.44
2022-08-29T03:47:12.129Z,18.44
2022-08-29T03:50:15.985Z,18.49
2022-08-29T03:53:18.708Z,18.49
2022-08-29T03:56:22.287Z,18.45
2022-08-29T03:59:25.062Z,18.45
2022-08-29T04:02:27.651Z,18.53
2022-08-29T04:05:30.224Z,18.60
2022-08-29T04:08:32.464Z,18.62
2022-08-29T04:11:34.672Z,18.60
2022-08-29T04:14:37.666Z,18.72
2022-08-29T04:17:45.603Z,18.72
2022-08-29T04:21:02.045Z,18.50
2022-08-29T04:24:04.293Z,18.37
2022-08-29T04:27:06.473Z,18.28
2022-08-29T04:30:15.219Z,18.05
2022-08-29T04:33:22.316Z,17.92
2022-08-29T04:36:26.097Z,17.98
2022-08-29T04:39:28.457Z,18.15
2022-08-29T04:42:31.269Z,18.10
2022-08-29T04:45:33.664Z,18.24
2022-08-29T04:48:35.855Z,18.40
2022-08-29T04:51:38.151Z,18.74
2022-08-29T04:54:40.418Z,19.27
2022-08-29T04:57:42.814Z,19.12
2022-08-29T05:00:45.768Z,19.14
2022-08-29T05:03:49.057Z,19.23
2022-08-29T05:06:51.278Z,19.42
2022-08-29T05:10:17.399Z,19.61
2022-08-29T05:13:19.677Z,19.97
2022-08-29T05:16:21.917Z,20.21
2022-08-29T05:19:24.158Z,20.20
2022-08-29T05:22:26.923Z,20.56
2022-08-29T05:25:29.186Z,20.75
2022-08-29T05:28:34.034Z,20.62
2022-08-29T05:31:38.096Z,20.75
2022-08-29T05:34:41.844Z,20.87
2022-08-29T05:37:44.105Z,21.03
2022-08-29T05:40:46.432Z,21.46
2022-08-29T05:43:48.643Z,21.01
2022-08-29T05:46:50.917Z,20.77
2022-08-29T05:49:53.151Z,20.98
2022-08-29T05:52:55.340Z,21.29
2022-08-29T05:55:57.654Z,21.23
2022-08-29T05:58:59.964Z,21.46
2022-08-29T06:02:02.575Z,21.50
2022-08-29T06:05:05.008Z,21.47
2022-08-29T06:08:08.213Z,21.32
2022-08-29T06:11:24.807Z,21.48
2022-08-29T06:14:27.231Z,21.66
2022-08-29T06:17:29.754Z,21.97
2022-08-29T06:20:32.021Z,21.89
2022-08-29T06:23:35.136Z,21.89
2022-08-29T06:26:37.557Z,21.83
2022-08-29T06:29:43.724Z,22.19
2022-08-29T06:32:46.166Z,22.49
2022-08-29T06:35:48.413Z,22.83
2022-08-29T06:38:50.604Z,22.81
2022-08-29T06:41:52.845Z,23.05
2022-08-29T06:44:55.103Z,23.02
2022-08-29T06:47:57.391Z,22.76
2022-08-29T06:51:02.903Z,22.78
2022-08-29T06:54:07.216Z,23.12
2022-08-29T06:57:09.560Z,23.32
2022-08-29T07:00:22.078Z,23.78
2022-08-29T07:03:25.485Z,23.51
2022-08-29T07:06:28.454Z,23.80
2022-08-29T07:09:32.347Z,23.92
2022-08-29T07:12:34.923Z,23.95
2022-08-29T07:15:37.246Z,24.17
2022-08-29T07:18:39.507Z,24.14
2022-08-29T07:21:41.848Z,24.17
2022-08-29T07:24:44.230Z,24.14
2022-08-29T07:27:48.253Z,23.49
2022-08-29T07:30:55.604Z,24.12
2022-08-29T07:34:02.731Z,24.18
2022-08-29T07:37:06.187Z,24.27
2022-08-29T07:40:19.312Z,24.84
2022-08-29T07:43:24.988Z,24.81
2022-08-29T07:46:29.689Z,24.93
2022-08-29T07:49:41.003Z,25.01
2022-08-29T07:52:43.952Z,24.33
2022-08-29T07:55:46.557Z,24.80
2022-08-29T07:58:48.972Z,25.13
2022-08-29T08:01:51.249Z,24.78
2022-08-29T08:04:53.441Z,24.78
2022-08-29T08:07:56.304Z,25.09
2022-08-29T08:10:58.586Z,25.04
2022-08-29T08:14:01.054Z,25.49
2022-08-29T08:17:03.816Z,25.38
2022-08-29T08:20:09.598Z,25.54
2022-08-29T08:23:14.837Z,25.99
2022-08-29T08:26:17.432Z,25.99
2022-08-29T08:29:19.702Z,25.70
2022-08-29T08:32:22.003Z,26.19
2022-08-29T08:35:24.549Z,26.23
2022-08-29T08:38:27.313Z,25.95
2022-08-29T08:41:42.146Z,25.72
2022-08-29T08:45:06.493Z,25.52
2022-08-29T08:48:14.381Z,25.21
2022-08-29T08:51:22.938Z,25.65
2022-08-29T08:54:27.802Z,25.46
2022-08-29T08:57:37.717Z,25.01
2022-08-29T09:00:53.125Z,24.64
2022-08-29T09:04:27.210Z,24.38
2022-08-29T09:07:48.153Z,24.63
2022-08-29T09:10:58.889Z,25.12
2022-08-29T09:14:03.775Z,25.19
2022-08-29T09:17:08.483Z,25.59
2022-08-29T09:20:15.321Z,25.58
2022-08-29T09:23:28.403Z,25.55
2022-08-29T09:26:30.831Z,25.91
2022-08-29T09:29:33.037Z,25.80
2022-08-29T09:33:11.502Z,25.64
2022-08-29T09:36:15.903Z,25.50
2022-08-29T09:39:24.990Z,24.87
2022-08-29T09:42:36.178Z,24.93
2022-08-29T09:45:38.455Z,25.47
2022-08-29T09:48:49.486Z,25.90
2022-08-29T09:51:51.679Z,25.68
2022-08-29T09:54:53.978Z,24.93
2022-08-29T09:58:06.704Z,25.00
2022-08-29T10:01:17.953Z,25.49
2022-08-29T10:04:37.366Z,25.59
2022-08-29T10:07:52.311Z,25.62
2022-08-29T10:10:58.139Z,25.64
2022-08-29T10:14:31.183Z,25.54
2022-08-29T10:18:05.421Z,25.71
2022-08-29T10:21:21.449Z,25.84
2022-08-29T10:24:49.107Z,25.77
2022-08-29T10:28:14.833Z,25.38
2022-08-29T10:31:27.784Z,25.65
2022-08-29T10:34:44.648Z,25.94
2022-08-29T10:37:57.590Z,25.65
2022-08-29T10:41:36.858Z,25.44
2022-08-29T10:45:06.769Z,25.60
2022-08-29T10:48:21.967Z,26.12
2022-08-29T10:52:03.614Z,26.67
2022-08-29T10:55:20.945Z,27.06
2022-08-29T10:58:44.588Z,26.98
2022-08-29T11:02:19.948Z,26.65
2022-08-29T11:05:26.399Z,26.83
2022-08-29T11:08:34.481Z,26.44
2022-08-29T11:11:38.218Z,26.35
2022-08-29T11:14:44.469Z,26.41
2022-08-29T11:17:52.342Z,26.38
2022-08-29T11:21:02.162Z,26.55
2022-08-29T11:24:05.569Z,26.80
2022-08-29T11:27:10.261Z,26.77
2022-08-29T11:30:40.335Z,26.62
2022-08-29T11:33:45.938Z,26.92
2022-08-29T11:37:07.267Z,27.43
2022-08-29T11:40:15.421Z,27.74
2022-08-29T11:43:20.958Z,28.01
2022-08-29T11:46:42.696Z,27.86
2022-08-29T11:49:51.501Z,27.95
2022-08-29T11:53:33.851Z,28.07
2022-08-29T11:56:36.278Z,28.00
2022-08-29T11:59:54.629Z,27.65
2022-08-29T12:02:57.057Z,28.15
2022-08-29T12:06:03.252Z,28.17
2022-08-29T12:09:19.414Z,27.52
2022-08-29T12:12:47.461Z,27.48
2022-08-29T12:15:53.498Z,27.10
2022-08-29T12:18:57.536Z,27.28
2022-08-29T12:22:01.096Z,27.31
2022-08-29T12:25:27.985Z,26.66
2022-08-29T12:28:37.081Z,27.08
2022-08-29T12:31:44.376Z,27.45
2022-08-29T12:35:26.222Z,27.82
2022-08-29T12:38:53.981Z,28.16
2022-08-29T12:42:02.053Z,28.28
2022-08-29T12:45:13.475Z,28.49
2022-08-29T12:48:25.098Z,28.09
2022-08-29T12:51:56.278Z,28.17
2022-08-29T12:55:03.133Z,28.50
2022-08-29T12:58:06.969Z,28.40
2022-08-29T13:01:31.959Z,28.12
2022-08-29T13:04:36.444Z,28.49
2022-08-29T13:07:38.629Z,28.71
2022-08-29T13:10:52.502Z,28.81
2022-08-29T13:14:23.804Z,28.94
2022-08-29T13:17:38.121Z,28.74
2022-08-29T13:20:40.394Z,28.82
2022-08-29T13:23:47.228Z,28.78
2022-08-29T13:27:04.969Z,28.63
2022-08-29T13:30:08.838Z,28.22
2022-08-29T13:33:27.131Z,28.01
2022-08-29T13:36:59.911Z,27.86
2022-08-29T13:40:33.154Z,27.47
2022-08-29T13:43:46.096Z,27.02
2022-08-29T13:46:51.289Z,27.48
2022-08-29T13:50:01.261Z,27.61
2022-08-29T13:53:03.509Z,27.53
2022-08-29T13:56:19.990Z,27.54
2022-08-29T13:59:28.005Z,27.68
2022-08-29T14:02:30.468Z,27.59
2022-08-29T14:05:33.080Z,27.28
2022-08-29T14:08:35.383Z,27.09
2022-08-29T14:11:37.561Z,26.91
2022-08-29T14:14:40.457Z,27.04
2022-08-29T14:17:42.918Z,26.99
2022-08-29T14:20:45.173Z,27.01
2022-08-29T14:23:48.565Z,26.96
2022-08-29T14:26:57.555Z,26.81
2022-08-29T14:30:06.778Z,26.70
2022-08-29T14:33:09.183Z,26.33
2022-08-29T14:36:11.406Z,26.23
2022-08-29T14:39:14.158Z,26.25
2022-08-29T14:42:16.499Z,26.23
2022-08-29T14:45:18.787Z,26.48
2022-08-29T14:48:21.046Z,26.64
2022-08-29T14:51:23.330Z,26.54
2022-08-29T14:54:25.499Z,26.19
2022-08-29T14:57:27.953Z,26.06
2022-08-29T15:00:31.852Z,26.00
2022-08-29T15:03:34.039Z,25.86
2022-08-29T15:06:37.102Z,25.80
2022-08-29T15:09:40.280Z,25.79
2022-08-29T15:12:42.801Z,25.84
2022-08-29T15:15:45.251Z,25.79
2022-08-29T15:22:10.509Z,25.49
2022-08-29T15:25:12.778Z,25.23
2022-08-29T15:28:15.082Z,25.02
2022-08-29T15:31:17.518Z,24.86
2022-08-29T15:34:19.788Z,24.68
2022-08-29T15:37:22.228Z,24.34
2022-08-29T15:40:24.698Z,24.04
2022-08-29T15:43:27.890Z,23.84
2022-08-29T15:46:30.832Z,23.72
2022-08-29T15:49:33.165Z,23.56
2022-08-29T15:52:36.568Z,23.44
2022-08-29T15:55:42.510Z,23.28
2022-08-29T15:58:48.302Z,23.33
2022-08-29T16:01:53.609Z,23.45
2022-08-29T16:04:57.287Z,23.68
2022-08-29T16:08:00.223Z,23.89
2022-08-29T16:11:04.443Z,24.12
2022-08-29T16:14:41.165Z,24.25
2022-08-29T16:17:31.552Z,24.34
2022-08-29T16:20:34.620Z,24.36
2022-08-29T16:23:36.897Z,24.25
2022-08-29T16:26:43.728Z,24.10
2022-08-29T16:29:47.758Z,24.00
2022-08-29T16:32:50.501Z,24.01
2022-08-29T16:35:52.704Z,23.92
2022-08-29T16:38:55.698Z,23.79
2022-08-29T16:41:58.000Z,23.64
2022-08-29T16:45:00.303Z,23.61
2022-08-29T16:48:02.906Z,23.52
2022-08-29T16:51:07.979Z,23.43
2022-08-29T16:54:12.451Z,23.36
2022-08-29T16:57:14.672Z,23.23
2022-08-29T17:00:16.951Z,23.22
2022-08-29T17:03:20.337Z,23.24
2022-08-29T17:06:23.364Z,23.00
2022-08-29T17:09:25.814Z,22.96
2022-08-29T17:12:29.254Z,22.97
2022-08-29T17:15:31.454Z,22.80
2022-08-29T17:18:34.290Z,22.71
2022-08-29T17:21:36.678Z,22.59
2022-08-29T17:24:38.917Z,22.53
2022-08-29T17:27:42.914Z,22.41
2022-08-29T17:30:55.081Z,22.37
2022-08-29T17:33:57.429Z,22.27
2022-08-29T17:37:00.452Z,22.32
2022-08-29T17:40:04.212Z,22.17
2022-08-29T17:43:06.963Z,22.16
2022-08-29T17:46:09.916Z,22.09
2022-08-29T17:49:12.427Z,22.06
2022-08-29T17:52:14.628Z,22.01
2022-08-29T17:55:17.113Z,21.97
2022-08-29T17:58:21.183Z,21.88
2022-08-29T18:01:23.747Z,21.88
2022-08-29T18:04:26.925Z,21.79
2022-08-29T18:07:29.795Z,21.74
2022-08-29T18:10:33.649Z,21.71
2022-08-29T18:13:35.840Z,21.85
2022-08-29T18:16:38.206Z,21.74
2022-08-29T18:19:41.109Z,21.63
2022-08-29T18:22:43.379Z,21.53
2022-08-29T18:25:45.646Z,21.43
2022-08-29T18:28:48.159Z,21.58
2022-08-29T18:31:51.955Z,21.57
2022-08-29T18:34:58.799Z,21.50
2022-08-29T18:38:02.917Z,21.54
2022-08-29T18:41:06.488Z,21.64
2022-08-29T18:44:10.128Z,21.74
2022-08-29T18:47:12.376Z,21.65
2022-08-29T18:50:33.209Z,21.66
2022-08-29T18:53:35.477Z,21.63
2022-08-29T18:56:38.318Z,21.47
2022-08-29T18:59:40.994Z,21.46
2022-08-29T19:02:43.539Z,21.52
2022-08-29T19:05:49.524Z,21.44
2022-08-29T19:08:52.764Z,21.48
2022-08-29T19:11:55.925Z,21.05
2022-08-29T19:14:58.160Z,21.01
2022-08-29T19:18:00.607Z,21.08
2022-08-29T19:21:02.970Z,21.10
2022-08-29T19:24:05.299Z,21.05
2022-08-29T19:27:21.718Z,20.99
2022-08-29T19:30:29.820Z,20.92
2022-08-29T19:33:34.420Z,20.72
2022-08-29T19:36:36.919Z,20.53
2022-08-29T19:39:39.158Z,20.69
2022-08-29T19:42:42.212Z,20.75
2022-08-29T19:45:44.644Z,20.91
2022-08-29T19:48:51.608Z,20.80
2022-08-29T19:51:54.829Z,20.51
2022-08-29T19:55:00.246Z,20.49
2022-08-29T19:58:02.536Z,20.60
2022-08-29T20:01:08.824Z,20.71
2022-08-29T20:04:11.724Z,20.45
2022-08-29T20:07:14.687Z,20.32
2022-08-29T20:10:23.326Z,20.53
2022-08-29T20:13:28.186Z,20.71
2022-08-29T20:16:36.100Z,20.42
2022-08-29T20:19:39.517Z,20.77
2022-08-29T20:22:41.763Z,20.78
2022-08-29T20:25:45.920Z,20.63
2022-08-29T20:28:49.259Z,20.64
2022-08-29T20:31:51.490Z,20.59
2022-08-29T20:34:53.784Z,20.60
2022-08-29T20:37:56.014Z,20.58
2022-08-29T20:40:58.247Z,20.45
2022-08-29T20:44:06.889Z,20.48
2022-08-29T20:47:20.396Z,20.47
2022-08-29T20:50:22.715Z,20.41
2022-08-29T20:53:32.554Z,20.45
2022-08-29T20:56:35.192Z,20.66
2022-08-29T20:59:39.499Z,20.61
2022-08-29T21:03:00.262Z,20.66
2022-08-29T21:06:03.709Z,20.68
2022-08-29T21:09:06.272Z,20.61
2022-08-29T21:12:08.730Z,20.50
2022-08-29T21:15:11.794Z,20.45
2022-08-29T21:18:16.103Z,20.31
2022-08-29T21:21:24.836Z,20.31
2022-08-29T21:24:29.505Z,20.33
2022-08-29T21:27:31.844Z,20.40
2022-08-29T21:30:35.677Z,20.38
2022-08-29T21:33:39.608Z,20.37
2022-08-29T21:36:41.838Z,20.15
2022-08-29T21:39:46.568Z,20.36
2022-08-29T21:42:48.917Z,20.14
2022-08-29T21:45:51.951Z,19.89
2022-08-29T21:48:57.032Z,19.81
2022-08-29T21:51:59.843Z,19.84
2022-08-29T21:55:02.104Z,19.86
2022-08-29T21:58:04.433Z,20.15
2022-08-29T22:01:09.334Z,20.27
2022-08-29T22:04:19.220Z,20.30
2022-08-29T22:07:31.296Z,20.12
2022-08-29T22:10:35.838Z,20.02
2022-08-29T22:13:38.155Z,20.06
2022-08-29T22:16:41.025Z,19.93
2022-08-29T22:19:43.386Z,19.86
2022-08-29T22:22:46.334Z,19.78
2022-08-29T22:25:48.530Z,19.63
2022-08-29T22:28:50.855Z,19.67
2022-08-29T22:31:55.246Z,19.55
2022-08-29T22:34:57.422Z,19.47
2022-08-29T22:37:59.616Z,19.55
2022-08-29T22:41:01.896Z,19.45
2022-08-29T22:47:27.402Z,19.57
2022-08-29T22:50:29.621Z,19.57
2022-08-29T22:53:31.857Z,19.66
2022-08-29T22:56:36.328Z,19.80
2022-08-29T22:59:38.941Z,19.84
2022-08-29T23:02:41.572Z,19.87
2022-08-29T23:05:43.832Z,19.93
2022-08-29T23:08:46.065Z,19.82
2022-08-29T23:11:48.535Z,19.80
2022-08-29T23:14:51.397Z,19.76
2022-08-29T23:17:53.662Z,19.71
2022-08-29T23:20:55.866Z,19.72
2022-08-29T23:23:58.821Z,19.71
2022-08-29T23:27:01.112Z,19.74
2022-08-29T23:30:05.612Z,19.67
2022-08-29T23:33:11.336Z,19.61
2022-08-29T23:36:13.536Z,19.64
2022-08-29T23:39:15.724Z,19.61
2022-08-29T23:42:18.135Z,19.44
2022-08-29T23:45:20.482Z,19.25
2022-08-29T23:48:25.963Z,18.99
2022-08-29T23:51:28.287Z,19.05
2022-08-29T23:54:31.550Z,19.11
2022-08-29T23:57:34.855Z,19.13
